createdAt,value
2018-09-20T00:01:19.238Z,98023.59
2018-09-20T00:03:47.467Z,98022.02
2018-09-20T00:06:18.721Z,98027.53
2018-09-20T00:08:47.215Z,98022.86
2018-09-20T00:11:16.293Z,98022.38
2018-09-20T00:13:42.920Z,98018.69
2018-09-20T00:16:14.313Z,98015.65
2018-09-20T00:18:43.121Z,98011.28
2018-09-20T00:21:13.479Z,98016.88
2018-09-20T00:23:43.494Z,98010.45
2018-09-20T00:28:45.061Z,98005.17
2018-09-20T00:33:44.709Z,98003.85
2018-09-20T00:38:43.997Z,98009.36
2018-09-20T00:41:12.660Z,98005.00
2018-09-20T00:46:14.721Z,98007.45
2018-09-20T00:48:43.214Z,98001.68
2018-09-20T00:51:11.870Z,98002.26
2018-09-20T00:53:41.316Z,98001.23
2018-09-20T00:56:09.077Z,97999.67
2018-09-20T00:58:38.394Z,98001.68
2018-09-20T01:01:05.654Z,98001.76
2018-09-20T01:03:35.164Z,97990.73
2018-09-20T01:06:03.324Z,97990.80
2018-09-20T01:08:31.121Z,97996.57
2018-09-20T01:10:58.999Z,97994.51
2018-09-20T01:13:26.292Z,97997.52
2018-09-20T01:15:57.186Z,97989.22
2018-09-20T01:18:24.804Z,97988.06
2018-09-20T01:20:52.029Z,97974.42
2018-09-20T01:23:20.532Z,97983.75
2018-09-20T01:25:49.585Z,97980.30
2018-09-20T01:28:18.008Z,97977.55
2018-09-20T01:30:46.545Z,97984.51
2018-09-20T01:33:18.389Z,97981.66
2018-09-20T01:35:46.102Z,97978.14
2018-09-20T01:38:15.988Z,97982.30
2018-09-20T01:40:44.062Z,97982.20
2018-09-20T01:45:44.618Z,97987.54
2018-09-20T01:48:13.154Z,97985.77
2018-09-20T01:50:41.902Z,97986.13
2018-09-20T01:53:10.991Z,97990.35
2018-09-20T01:55:39.336Z,97987.22
2018-09-20T01:58:07.655Z,97986.26
2018-09-20T02:00:35.504Z,97987.63
2018-09-20T02:03:04.164Z,97985.94
2018-09-20T02:05:33.536Z,97981.30
2018-09-20T02:08:03.366Z,97985.27
2018-09-20T02:10:32.087Z,97983.11
2018-09-20T02:13:02.970Z,97985.66
2018-09-20T02:15:34.793Z,97983.39
2018-09-20T02:18:06.691Z,97983.70
2018-09-20T02:20:34.693Z,97985.63
2018-09-20T02:23:03.033Z,97978.30
2018-09-20T02:25:36.891Z,97986.51
2018-09-20T02:33:08.236Z,97981.81
2018-09-20T02:35:37.049Z,97982.39
2018-09-20T02:40:40.192Z,97980.56
2018-09-20T02:43:09.888Z,97970.81
2018-09-20T02:45:39.385Z,97977.75
2018-09-20T02:53:12.856Z,97974.03
2018-09-20T02:55:42.005Z,97977.33
2018-09-20T02:58:17.460Z,97976.09
2018-09-20T03:00:46.269Z,97983.47
2018-09-20T03:03:15.971Z,97980.73
2018-09-20T03:05:47.116Z,97976.41
2018-09-20T03:08:15.495Z,97981.25
2018-09-20T03:10:44.398Z,97978.27
2018-09-20T03:15:48.207Z,97978.84
2018-09-20T03:18:16.523Z,97979.28
2018-09-20T03:20:43.995Z,97976.17
2018-09-20T03:23:12.924Z,97978.91
2018-09-20T03:25:39.720Z,97979.78
2018-09-20T03:28:06.568Z,97979.86
2018-09-20T03:30:33.478Z,97982.52
2018-09-20T03:33:00.767Z,97982.73
2018-09-20T03:35:29.696Z,97982.22
2018-09-20T03:37:57.318Z,97982.45
2018-09-20T03:40:24.655Z,97982.03
2018-09-20T03:42:51.950Z,97990.40
2018-09-20T03:45:19.856Z,97989.17
2018-09-20T03:47:46.460Z,97990.45
2018-09-20T03:50:15.630Z,97992.39
2018-09-20T03:52:42.304Z,97987.41
2018-09-20T03:55:10.017Z,97991.17
2018-09-20T03:57:39.309Z,97984.44
2018-09-20T04:00:06.049Z,97984.97
2018-09-20T04:02:32.715Z,97986.38
2018-09-20T04:04:59.505Z,97981.13
2018-09-20T04:07:26.205Z,97978.03
2018-09-20T04:09:52.798Z,97981.37
2018-09-20T04:12:19.686Z,97983.59
2018-09-20T04:14:46.860Z,97987.66
2018-09-20T04:17:13.599Z,97981.33
2018-09-20T04:19:40.574Z,97987.54
2018-09-20T04:22:07.244Z,97984.72
2018-09-20T04:24:39.878Z,97991.17
2018-09-20T04:27:08.704Z,97996.30
2018-09-20T04:29:36.270Z,97996.37
2018-09-20T04:32:03.757Z,97998.19
2018-09-20T04:34:30.426Z,97997.95
2018-09-20T04:36:57.027Z,97997.70
2018-09-20T04:39:23.709Z,98004.72
2018-09-20T04:41:50.505Z,97999.00
2018-09-20T04:44:17.593Z,98001.18
2018-09-20T04:46:45.056Z,98002.92
2018-09-20T04:49:11.812Z,98008.08
2018-09-20T04:51:38.842Z,98003.56
2018-09-20T04:54:05.588Z,98006.31
2018-09-20T04:56:32.598Z,98005.42
2018-09-20T04:59:03.564Z,98000.29
2018-09-20T05:01:30.124Z,98004.42
2018-09-20T05:03:57.730Z,98006.97
2018-09-20T05:06:26.065Z,98013.11
2018-09-20T05:08:55.714Z,98007.49
2018-09-20T05:11:24.143Z,98006.40
2018-09-20T05:13:52.781Z,98014.94
2018-09-20T05:16:19.499Z,98012.86
2018-09-20T05:18:47.915Z,98003.40
2018-09-20T05:21:15.254Z,98004.44
2018-09-20T05:23:42.001Z,98006.78
2018-09-20T05:26:09.127Z,98006.23
2018-09-20T05:28:36.472Z,98004.92
2018-09-20T05:31:03.922Z,98009.22
2018-09-20T05:33:30.780Z,98005.02
2018-09-20T05:36:00.104Z,98010.41
2018-09-20T05:38:26.882Z,98008.12
2018-09-20T05:43:25.734Z,98011.55
2018-09-20T05:45:53.292Z,98006.86
2018-09-20T05:48:21.622Z,98011.38
2018-09-20T05:50:49.733Z,98010.25
2018-09-20T05:53:16.620Z,98010.95
2018-09-20T05:55:43.703Z,98009.80
2018-09-20T05:58:10.551Z,98015.58
2018-09-20T06:00:37.249Z,98017.56
2018-09-20T06:03:04.107Z,98010.39
2018-09-20T06:05:32.656Z,98018.34
2018-09-20T06:07:59.534Z,98013.30
2018-09-20T06:10:27.236Z,98015.23
2018-09-20T06:15:26.176Z,98013.83
2018-09-20T06:17:54.228Z,98011.30
2018-09-20T06:20:21.469Z,98009.05
2018-09-20T06:22:50.689Z,98014.45
2018-09-20T06:25:18.156Z,98015.67
2018-09-20T06:27:45.517Z,98015.41
2018-09-20T06:30:13.060Z,98017.34
2018-09-20T06:32:40.593Z,98018.55
2018-09-20T06:35:07.592Z,98020.58
2018-09-20T06:37:34.639Z,98025.05
2018-09-20T06:40:02.190Z,98025.54
2018-09-20T06:42:31.142Z,98030.12
2018-09-20T06:47:29.834Z,98035.07
2018-09-20T06:49:56.745Z,98032.61
2018-09-20T06:52:26.934Z,98033.00
2018-09-20T06:54:54.493Z,98033.40
2018-09-20T06:57:21.260Z,98031.28
2018-09-20T06:59:48.429Z,98036.55
2018-09-20T07:02:17.330Z,98030.09
2018-09-20T07:04:45.719Z,98030.50
2018-09-20T07:07:12.504Z,98029.67
2018-09-20T07:09:40.972Z,98027.64
2018-09-20T07:14:35.332Z,98034.29
2018-09-20T07:19:35.850Z,98027.92
2018-09-20T07:22:06.160Z,98033.98
2018-09-20T07:24:33.548Z,98027.75
2018-09-20T07:29:33.537Z,98025.30
2018-09-20T07:32:01.346Z,98029.59
2018-09-20T07:34:32.240Z,98026.47
2018-09-20T07:37:00.577Z,98026.93
2018-09-20T07:39:28.097Z,98031.51
2018-09-20T07:41:55.482Z,98031.51
2018-09-20T07:44:22.229Z,98031.00
2018-09-20T07:46:50.490Z,98040.83
2018-09-20T07:51:49.983Z,98045.89
2018-09-20T07:54:16.609Z,98041.44
2018-09-20T07:56:43.313Z,98041.20
2018-09-20T07:59:11.017Z,98043.30
2018-09-20T08:01:37.737Z,98046.17
2018-09-20T08:04:11.184Z,98048.98
2018-09-20T08:06:38.108Z,98042.80
2018-09-20T08:09:06.399Z,98045.48
2018-09-20T08:11:36.590Z,98050.33
2018-09-20T08:14:03.335Z,98051.15
2018-09-20T08:16:32.677Z,98053.42
2018-09-20T08:19:02.118Z,98057.91
2018-09-20T08:21:30.890Z,98053.69
2018-09-20T08:24:00.622Z,98046.56
2018-09-20T08:26:28.976Z,98051.31
2018-09-20T08:29:00.183Z,98045.29
2018-09-20T08:31:26.982Z,98045.31
2018-09-20T08:33:55.925Z,98045.27
2018-09-20T08:36:31.816Z,98046.11
2018-09-20T08:39:01.665Z,98046.70
2018-09-20T08:46:36.094Z,98041.06
2018-09-20T08:49:05.207Z,98041.30
2018-09-20T08:51:31.742Z,98035.63
2018-09-20T08:54:01.129Z,98042.64
2018-09-20T08:56:36.407Z,98042.64
2018-09-20T08:59:08.955Z,98036.89
2018-09-20T09:01:41.011Z,98034.80
2018-09-20T09:04:15.189Z,98031.30
2018-09-20T09:06:41.769Z,98027.55
2018-09-20T09:09:11.856Z,98019.42
2018-09-20T09:11:41.964Z,98016.72
2018-09-20T09:14:08.656Z,98014.27
2018-09-20T09:16:40.644Z,98012.91
2018-09-20T09:19:11.266Z,98009.74
2018-09-20T09:21:40.366Z,98006.83
2018-09-20T09:24:11.516Z,98002.36
2018-09-20T09:26:46.661Z,98002.77
2018-09-20T09:29:13.432Z,98007.04
2018-09-20T09:31:43.278Z,98008.75
2018-09-20T09:34:12.998Z,98008.69
2018-09-20T09:36:39.819Z,98013.94
2018-09-20T09:39:06.502Z,98005.42
2018-09-20T09:41:34.294Z,98006.25
2018-09-20T09:44:03.618Z,97999.41
2018-09-20T09:46:30.341Z,98002.80
2018-09-20T09:49:01.885Z,97994.58
2018-09-20T09:51:28.499Z,97989.78
2018-09-20T09:54:00.670Z,97987.81
2018-09-20T09:56:31.675Z,97986.65
2018-09-20T09:59:00.300Z,97983.57
2018-09-20T10:01:26.846Z,97982.85
2018-09-20T10:03:56.107Z,97970.56
2018-09-20T10:06:22.902Z,97969.92
2018-09-20T10:08:53.881Z,97968.50
2018-09-20T10:11:20.468Z,97971.65
2018-09-20T10:13:47.333Z,97966.83
2018-09-20T10:16:16.153Z,97967.11
2018-09-20T10:18:48.669Z,97963.98
2018-09-20T10:21:16.480Z,97958.22
2018-09-20T10:23:45.992Z,97958.72
2018-09-20T10:26:16.034Z,97954.52
2018-09-20T10:28:43.817Z,97947.44
2018-09-20T10:31:10.409Z,97950.37
2018-09-20T10:33:40.844Z,97946.07
2018-09-20T10:36:07.741Z,97948.81
2018-09-20T10:38:35.754Z,97945.15
2018-09-20T10:41:08.400Z,97940.98
2018-09-20T10:43:36.914Z,97936.09
2018-09-20T10:46:03.555Z,97926.81
2018-09-20T10:48:31.150Z,97925.64
2018-09-20T10:51:03.281Z,97933.63
2018-09-20T10:53:33.074Z,97923.08
2018-09-20T10:58:33.236Z,97921.34
2018-09-20T11:01:05.398Z,97919.79
2018-09-20T11:03:41.240Z,97915.16
2018-09-20T11:06:15.111Z,97917.88
2018-09-20T11:08:48.103Z,97917.89
2018-09-20T11:11:23.091Z,97911.03
2018-09-20T11:13:57.227Z,97906.29
2018-09-20T11:16:23.722Z,97905.91
2018-09-20T11:18:50.216Z,97897.41
2018-09-20T11:21:16.877Z,97890.75
2018-09-20T11:23:50.891Z,97892.52
2018-09-20T11:26:17.470Z,97896.09
2018-09-20T11:28:45.077Z,97888.81
2018-09-20T11:31:13.042Z,97888.40
2018-09-20T11:33:39.621Z,97890.94
2018-09-20T11:36:06.453Z,97896.06
2018-09-20T11:44:19.156Z,97883.02
2018-09-20T11:46:45.885Z,97885.41
2018-09-20T11:49:12.948Z,97876.48
2018-09-20T11:51:46.754Z,97878.28
2018-09-20T11:54:20.684Z,97866.23
2018-09-20T11:56:47.883Z,97872.53
2018-09-20T11:59:25.100Z,97866.17
2018-09-20T12:01:51.601Z,97859.46
2018-09-20T12:04:20.843Z,97864.27
2018-09-20T12:06:47.329Z,97851.75
2018-09-20T12:09:17.811Z,97850.99
2018-09-20T12:11:44.579Z,97854.72
2018-09-20T12:14:16.108Z,97843.94
2018-09-20T12:16:42.740Z,97847.09
2018-09-20T12:19:11.092Z,97848.48
2018-09-20T12:21:41.509Z,97841.95
2018-09-20T12:24:11.704Z,97843.67
2018-09-20T12:26:38.377Z,97836.64
2018-09-20T12:29:09.009Z,97832.58
2018-09-20T12:31:41.711Z,97833.88
2018-09-20T12:34:12.143Z,97831.30
2018-09-20T12:36:44.349Z,97829.84
2018-09-20T12:39:17.698Z,97827.69
2018-09-20T12:41:48.292Z,97826.13
2018-09-20T12:44:22.367Z,97822.47
2018-09-20T12:49:29.115Z,97822.61
2018-09-20T12:52:01.429Z,97822.70
2018-09-20T12:54:28.082Z,97814.80
2018-09-20T12:56:58.986Z,97813.53
2018-09-20T12:59:25.565Z,97814.66
2018-09-20T13:01:53.121Z,97806.50
2018-09-20T13:04:22.161Z,97804.29
2018-09-20T13:06:48.790Z,97803.83
2018-09-20T13:09:15.440Z,97803.18
2018-09-20T13:11:42.019Z,97803.98
2018-09-20T13:14:08.547Z,97803.02
2018-09-20T13:16:41.775Z,97797.06
2018-09-20T13:19:08.361Z,97797.09
2018-09-20T13:21:40.252Z,97789.00
2018-09-20T13:24:07.010Z,97788.75
2018-09-20T13:26:34.329Z,97787.14
2018-09-20T13:29:01.856Z,97789.94
2018-09-20T13:31:36.392Z,97783.89
2018-09-20T13:34:03.007Z,97792.21
2018-09-20T13:36:29.597Z,97784.57
2018-09-20T13:39:01.709Z,97784.45
2018-09-20T13:41:28.233Z,97778.71
2018-09-20T13:43:56.213Z,97783.06
2018-09-20T13:46:30.385Z,97775.09
2018-09-20T13:48:57.284Z,97773.31
2018-09-20T13:51:33.592Z,97772.78
2018-09-20T13:54:00.202Z,97772.28
2018-09-20T13:56:36.273Z,97765.55
2018-09-20T13:59:10.026Z,97766.06
2018-09-20T14:01:43.660Z,97767.70
2018-09-20T14:06:48.154Z,97757.69
2018-09-20T14:09:25.264Z,97760.16
2018-09-20T14:11:59.056Z,97759.56
2018-09-20T14:14:25.551Z,97756.96
2018-09-20T14:16:52.335Z,97752.75
2018-09-20T14:19:27.544Z,97757.61
2018-09-20T14:21:54.335Z,97752.42
2018-09-20T14:24:30.368Z,97750.20
2018-09-20T14:26:56.885Z,97751.41
2018-09-20T14:32:19.053Z,97750.34
2018-09-20T14:34:45.584Z,97746.83
2018-09-20T14:37:12.228Z,97748.47
2018-09-20T14:39:38.777Z,97752.40
2018-09-20T14:47:37.968Z,97742.79
2018-09-20T14:50:09.299Z,97741.95
2018-09-20T14:55:23.063Z,97741.31
2018-09-20T14:57:57.597Z,97745.13
2018-09-20T15:00:24.230Z,97732.70
2018-09-20T15:02:57.845Z,97739.36
2018-09-20T15:05:24.517Z,97745.23
2018-09-20T15:08:00.176Z,97743.72
2018-09-20T15:12:59.442Z,97738.02
2018-09-20T15:15:28.713Z,97741.00
2018-09-20T15:17:55.197Z,97735.27
2018-09-20T15:20:22.749Z,97734.88
2018-09-20T15:22:49.320Z,97739.75
2018-09-20T15:25:15.967Z,97741.26
2018-09-20T15:27:47.660Z,97737.58
2018-09-20T15:30:19.682Z,97735.56
2018-09-20T15:32:47.710Z,97732.98
2018-09-20T15:35:14.357Z,97734.17
2018-09-20T15:37:40.861Z,97733.14
2018-09-20T15:40:07.530Z,97730.45
2018-09-20T15:42:41.327Z,97729.92
2018-09-20T15:45:08.017Z,97733.27
2018-09-20T15:47:41.391Z,97733.20
2018-09-20T15:50:12.582Z,97731.53
2018-09-20T15:52:45.545Z,97733.19
2018-09-20T15:55:15.649Z,97733.58
2018-09-20T15:57:47.235Z,97733.77
2018-09-20T16:00:13.786Z,97729.44
2018-09-20T16:02:43.091Z,97726.52
2018-09-20T16:05:10.217Z,97727.61
2018-09-20T16:07:44.173Z,97729.70
2018-09-20T16:10:11.026Z,97724.61
2018-09-20T16:15:13.175Z,97726.81
2018-09-20T16:17:49.586Z,97734.14
2018-09-20T16:20:25.354Z,97739.05
2018-09-20T16:22:58.383Z,97734.89
2018-09-20T16:25:25.026Z,97732.00
2018-09-20T16:27:51.530Z,97738.53
2018-09-20T16:30:18.833Z,97735.08
2018-09-20T16:35:27.609Z,97735.53
2018-09-20T16:37:54.589Z,97735.11
2018-09-20T16:40:21.272Z,97738.48
2018-09-20T16:42:48.572Z,97736.00
2018-09-20T16:45:23.480Z,97735.48
2018-09-20T16:47:51.719Z,97736.03
2018-09-20T16:50:20.717Z,97738.16
2018-09-20T16:52:47.378Z,97735.61
2018-09-20T16:55:17.267Z,97733.31
2018-09-20T16:57:45.872Z,97739.95
2018-09-20T17:00:12.483Z,97736.99
2018-09-20T17:02:39.829Z,97740.84
2018-09-20T17:05:11.400Z,97741.47
2018-09-20T17:07:38.061Z,97744.74
2018-09-20T17:10:07.402Z,97745.34
2018-09-20T17:12:35.249Z,97739.73
2018-09-20T17:15:01.927Z,97739.34
2018-09-20T17:17:28.594Z,97744.43
2018-09-20T17:19:59.339Z,97741.23
2018-09-20T17:22:25.927Z,97741.81
2018-09-20T17:24:53.460Z,97743.50
2018-09-20T17:27:20.604Z,97749.14
2018-09-20T17:29:50.172Z,97751.30
2018-09-20T17:32:18.868Z,97755.86
2018-09-20T17:34:45.704Z,97756.42
2018-09-20T17:37:14.660Z,97759.95
2018-09-20T17:39:41.352Z,97764.81
2018-09-20T17:42:08.309Z,97774.48
2018-09-20T17:44:38.464Z,97773.41
2018-09-20T17:47:08.532Z,97777.69
2018-09-20T17:49:35.729Z,97770.72
2018-09-20T17:52:06.138Z,97776.37
2018-09-20T17:54:33.992Z,97781.19
2018-09-20T17:59:35.115Z,97777.09
2018-09-20T18:02:02.826Z,97772.05
2018-09-20T18:04:31.856Z,97775.00
2018-09-20T18:07:03.387Z,97777.25
2018-09-20T18:09:32.184Z,97775.88
2018-09-20T18:11:59.057Z,97779.42
2018-09-20T18:14:25.833Z,97779.95
2018-09-20T18:16:56.180Z,97781.25
2018-09-20T18:19:26.112Z,97784.17
2018-09-20T18:21:56.138Z,97781.52
2018-09-20T18:24:22.743Z,97789.84
2018-09-20T18:26:52.648Z,97782.05
2018-09-20T18:29:20.002Z,97791.44
2018-09-20T18:31:46.888Z,97794.00
2018-09-20T18:34:13.585Z,97786.75
2018-09-20T18:36:40.827Z,97795.13
2018-09-20T18:39:09.805Z,97787.59
2018-09-20T18:41:36.943Z,97792.37
2018-09-20T18:44:03.902Z,97792.05
2018-09-20T18:46:33.222Z,97795.02
2018-09-20T18:49:01.537Z,97797.92
2018-09-20T18:56:33.586Z,97801.08
2018-09-20T18:59:00.251Z,97799.20
2018-09-20T19:01:33.001Z,97787.67
2018-09-20T19:04:02.871Z,97798.52
2018-09-20T19:06:32.282Z,97790.60
2018-09-20T19:08:59.250Z,97795.11
2018-09-20T19:11:29.011Z,97794.28
2018-09-20T19:13:55.787Z,97796.63
2018-09-20T19:16:22.417Z,97789.58
2018-09-20T19:18:49.156Z,97791.86
2018-09-20T19:21:17.684Z,97796.06
2018-09-20T19:23:44.258Z,97795.30
2018-09-20T19:28:44.384Z,97792.16
2018-09-20T19:31:10.973Z,97798.19
2018-09-20T19:33:40.143Z,97794.19
2018-09-20T19:36:07.926Z,97793.63
2018-09-20T19:38:35.283Z,97797.29
2018-09-20T19:41:01.959Z,97796.93
2018-09-20T19:48:32.443Z,97791.62
2018-09-20T19:51:01.502Z,97790.91
2018-09-20T19:56:02.836Z,97785.55
2018-09-20T19:58:30.657Z,97788.03
2018-09-20T20:00:59.019Z,97784.39
2018-09-20T20:03:26.480Z,97785.16
2018-09-20T20:05:53.259Z,97782.89
2018-09-20T20:08:20.797Z,97781.45
2018-09-20T20:10:47.678Z,97783.69
2018-09-20T20:13:16.553Z,97779.84
2018-09-20T20:15:43.315Z,97783.83
2018-09-20T20:18:09.961Z,97780.47
2018-09-20T20:20:39.581Z,97786.16
2018-09-20T20:23:06.300Z,97781.95
2018-09-20T20:25:32.978Z,97790.68
2018-09-20T20:28:00.292Z,97788.73
2018-09-20T20:30:27.325Z,97787.84
2018-09-20T20:32:54.032Z,97792.74
2018-09-20T20:35:21.343Z,97793.89
2018-09-20T20:37:48.035Z,97790.11
2018-09-20T20:40:14.940Z,97787.92
2018-09-20T20:42:41.768Z,97789.13
2018-09-20T20:45:10.586Z,97787.80
2018-09-20T20:47:37.383Z,97786.77
2018-09-20T20:50:04.196Z,97788.16
2018-09-20T20:52:32.565Z,97785.74
2018-09-20T20:54:59.937Z,97784.09
2018-09-20T20:57:26.563Z,97787.97
2018-09-20T20:59:53.834Z,97779.42
2018-09-20T21:02:23.670Z,97776.88
2018-09-20T21:04:52.864Z,97777.85
2018-09-20T21:07:19.514Z,97778.04
2018-09-20T21:09:47.176Z,97786.98
2018-09-20T21:12:16.176Z,97777.54
2018-09-20T21:14:42.823Z,97777.59
2018-09-20T21:17:11.089Z,97779.06
2018-09-20T21:19:38.579Z,97783.23
2018-09-20T21:22:06.288Z,97784.80
2018-09-20T21:27:09.156Z,97778.91
2018-09-20T21:29:36.622Z,97781.63
2018-09-20T21:32:03.149Z,97781.91
2018-09-20T21:37:02.523Z,97776.08
2018-09-20T21:39:30.393Z,97775.62
2018-09-20T21:41:56.979Z,97778.02
2018-09-20T21:44:24.027Z,97778.70
2018-09-20T21:46:50.771Z,97776.20
2018-09-20T21:49:18.304Z,97775.47
2018-09-20T21:51:45.200Z,97772.14
2018-09-20T21:54:12.532Z,97769.74
2018-09-20T21:56:40.847Z,97764.52
2018-09-20T21:59:08.513Z,97769.02
2018-09-20T22:01:35.390Z,97770.08
2018-09-20T22:04:02.049Z,97767.31
2018-09-20T22:06:28.717Z,97766.30
2018-09-20T22:08:55.410Z,97763.50
2018-09-20T22:11:22.325Z,97758.87
2018-09-20T22:13:51.955Z,97757.69
2018-09-20T22:16:18.524Z,97754.30
2018-09-20T22:18:45.421Z,97752.58
2018-09-20T22:21:13.452Z,97749.20
2018-09-20T22:23:40.647Z,97747.44
2018-09-20T22:26:07.732Z,97748.20
2018-09-20T22:28:35.749Z,97743.87
2018-09-20T22:31:04.226Z,97739.91
2018-09-20T22:33:30.794Z,97740.39
2018-09-20T22:35:57.462Z,97737.89
2018-09-20T22:38:24.403Z,97737.29
2018-09-20T22:40:51.812Z,97740.95
2018-09-20T22:43:18.712Z,97734.77
2018-09-20T22:46:20.740Z,97732.41
2018-09-20T22:48:48.663Z,97731.48
2018-09-20T22:51:15.555Z,97734.49
2018-09-20T22:53:42.860Z,97721.61
2018-09-20T22:56:10.216Z,97729.09
2018-09-20T22:58:36.773Z,97728.44
2018-09-20T23:01:04.069Z,97716.06
2018-09-20T23:03:32.073Z,97718.66
2018-09-20T23:05:58.903Z,97716.88
2018-09-20T23:08:25.576Z,97719.58
2018-09-20T23:10:52.319Z,97720.04
2018-09-20T23:13:19.251Z,97718.00
2018-09-20T23:15:47.150Z,97720.50
2018-09-20T23:18:15.253Z,97715.48
2018-09-20T23:20:44.664Z,97710.25
2018-09-20T23:23:12.025Z,97707.14
2018-09-20T23:25:39.080Z,97705.09
2018-09-20T23:28:07.576Z,97708.59
2018-09-20T23:30:34.704Z,97709.55
2018-09-20T23:33:01.880Z,97707.07
2018-09-20T23:35:28.965Z,97708.98
2018-09-20T23:37:55.603Z,97706.43
2018-09-20T23:40:22.296Z,97706.39
2018-09-20T23:42:48.875Z,97707.56
2018-09-20T23:45:15.883Z,97700.42
2018-09-20T23:47:43.408Z,97704.26
2018-09-20T23:50:10.912Z,97705.95
2018-09-20T23:52:37.707Z,97694.38
